Time;durP1;ratioP1;P1;durP2;ratioP2;P2;SDS_P1;SDS_P2;PMS_P1;PMS_P2;Temp;Humidity;BMP_temperature;BMP_pressure;BME280_temperature;BME280_humidity;BME280_pressure;Samples;Min_cycle;Max_cycle;Signal;HPM_P1;HPM_P2
2021/10/21 00:00:59;;;;;;;5.72;2.90;;;22.20;62.30;;;;;;5169677;28;20060;-66
2021/10/21 00:03:31;;;;;;;4.72;2.78;;;22.20;62.30;;;;;;5171274;28;20414;-65
2021/10/21 00:06:04;;;;;;;5.90;2.55;;;22.20;62.30;;;;;;5166747;28;20045;-65
2021/10/21 00:08:36;;;;;;;3.15;2.33;;;22.20;62.30;;;;;;5173913;28;21109;-65
2021/10/21 00:11:09;;;;;;;4.85;2.95;;;22.20;62.20;;;;;;5162892;28;20056;-65
2021/10/21 00:13:42;;;;;;;3.50;2.35;;;22.20;62.30;;;;;;5173971;28;20056;-65
2021/10/21 00:16:15;;;;;;;3.33;2.63;;;22.20;62.50;;;;;;5178291;28;20045;-65
2021/10/21 00:18:49;;;;;;;5.85;2.67;;;22.20;62.50;;;;;;5174486;28;20056;-67
2021/10/21 00:21:22;;;;;;;5.80;2.90;;;22.20;62.60;;;;;;5176759;28;20061;-65
2021/10/21 00:23:54;;;;;;;3.13;2.40;;;22.20;62.50;;;;;;5175780;28;20482;-66
2021/10/21 00:26:27;;;;;;;6.45;2.35;;;22.20;63.20;;;;;;5160242;28;20521;-65
2021/10/21 00:28:59;;;;;;;5.22;2.60;;;22.20;62.50;;;;;;5177057;28;20049;-65
2021/10/21 00:31:32;;;;;;;3.50;2.42;;;22.20;62.50;;;;;;5177045;28;20384;-65
2021/10/21 00:34:04;;;;;;;4.75;2.63;;;22.20;62.40;;;;;;5177405;28;20054;-66
2021/10/21 00:36:36;;;;;;;3.78;2.67;;;22.20;62.50;;;;;;5173900;28;20049;-66
2021/10/21 00:39:09;;;;;;;3.33;2.33;;;22.20;62.50;;;;;;5179157;28;20429;-65
2021/10/21 00:41:41;;;;;;;4.30;2.60;;;22.20;62.40;;;;;;5176059;28;20540;-66
2021/10/21 00:44:16;;;;;;;2.83;2.20;;;22.20;62.40;;;;;;5179391;28;20045;-65
2021/10/21 00:46:49;;;;;;;3.65;2.30;;;22.20;62.40;;;;;;5177991;28;20050;-66
2021/10/21 00:49:21;;;;;;;3.75;2.35;;;22.20;62.40;;;;;;5180654;28;20042;-65
2021/10/21 00:51:54;;;;;;;4.00;2.55;;;22.20;62.50;;;;;;5179617;28;20081;-65
2021/10/21 00:54:27;;;;;;;5.90;2.90;;;22.20;62.40;;;;;;5178849;28;20057;-65
2021/10/21 00:57:01;;;;;;;3.83;2.40;;;22.20;62.40;;;;;;5178436;28;20404;-65
2021/10/21 00:59:35;;;;;;;4.07;2.30;;;22.20;62.40;;;;;;5182163;28;20045;-65
2021/10/21 01:02:08;;;;;;;4.93;2.65;;;22.20;62.40;;;;;;5179538;28;20041;-65
2021/10/21 01:04:42;;;;;;;4.47;2.75;;;22.20;63.00;;;;;;5178834;28;20050;-66
2021/10/21 01:07:14;;;;;;;3.83;2.53;;;22.20;62.40;;;;;;5180258;28;20068;-65
2021/10/21 01:09:48;;;;;;;3.60;2.43;;;22.20;62.40;;;;;;5174973;28;20056;-67
2021/10/21 01:12:20;;;;;;;4.43;2.42;;;22.20;62.40;;;;;;5179288;28;20045;-63
2021/10/21 01:14:53;;;;;;;5.50;2.65;;;22.20;62.30;;;;;;5180499;28;20045;-64
2021/10/21 01:17:25;;;;;;;4.03;2.58;;;22.10;62.30;;;;;;5178733;28;20042;-66
2021/10/21 01:19:57;;;;;;;2.22;2.03;;;22.20;62.30;;;;;;5177132;28;20560;-65
2021/10/21 01:22:30;;;;;;;3.95;2.70;;;22.20;62.30;;;;;;5178290;28;20053;-65
2021/10/21 01:25:03;;;;;;;3.20;2.17;;;22.20;62.30;;;;;;5181180;28;20045;-65
2021/10/21 01:27:36;;;;;;;4.53;2.60;;;22.20;62.30;;;;;;5173831;28;20146;-65
2021/10/21 01:30:19;;;;;;;3.20;2.13;;;22.10;62.20;;;;;;5181215;28;20057;-65
2021/10/21 01:32:53;;;;;;;;;;;22.20;62.20;;;;;;5180879;28;20045;-65
2021/10/21 01:35:25;;;;;;;2.97;2.60;;;22.10;62.20;;;;;;5165762;28;19940;-66
2021/10/21 01:37:57;;;;;;;4.28;2.60;;;22.10;62.30;;;;;;5179117;28;20042;-65
2021/10/21 01:40:30;;;;;;;5.63;2.65;;;22.10;62.20;;;;;;5178817;28;20057;-65
2021/10/21 01:43:04;;;;;;;4.45;2.50;;;22.10;62.50;;;;;;5176908;28;20045;-65
2021/10/21 01:45:36;;;;;;;4.30;3.00;;;22.10;62.50;;;;;;5183308;28;20053;-65
2021/10/21 01:48:08;;;;;;;4.22;2.22;;;22.10;62.40;;;;;;5171127;28;20054;-65
2021/10/21 01:50:41;;;;;;;5.18;2.67;;;22.10;62.30;;;;;;5181805;28;20274;-65
2021/10/21 01:53:13;;;;;;;4.22;2.60;;;22.10;62.30;;;;;;5177595;28;20442;-65
2021/10/21 01:55:46;;;;;;;4.07;2.50;;;22.10;62.30;;;;;;5181041;28;20597;-65
2021/10/21 01:58:19;;;;;;;3.22;2.40;;;22.10;62.20;;;;;;5180333;28;20482;-65
2021/10/21 02:00:51;;;;;;;3.33;2.42;;;22.10;62.20;;;;;;5179120;28;20060;-65
2021/10/21 02:03:24;;;;;;;4.47;2.67;;;22.10;62.10;;;;;;5184936;28;20052;-65
2021/10/21 02:05:57;;;;;;;9.20;3.30;;;22.10;62.20;;;;;;5183283;28;20053;-65
2021/10/21 02:08:29;;;;;;;3.93;2.30;;;22.10;62.10;;;;;;5180018;28;20060;-65
2021/10/21 02:11:02;;;;;;;4.63;2.67;;;22.10;62.00;;;;;;5183084;28;20045;-65
2021/10/21 02:13:35;;;;;;;4.25;2.42;;;22.10;62.10;;;;;;5180450;28;20053;-65
2021/10/21 02:16:07;;;;;;;4.95;2.60;;;22.10;62.00;;;;;;5182215;28;20049;-65
2021/10/21 02:18:40;;;;;;;6.15;2.65;;;22.10;62.00;;;;;;5175682;28;20317;-65
2021/10/21 02:21:12;;;;;;;3.75;2.55;;;22.10;62.00;;;;;;5164264;28;20048;-65
2021/10/21 02:23:44;;;;;;;8.88;2.90;;;22.10;62.00;;;;;;5180532;28;20053;-65
2021/10/21 02:26:17;;;;;;;5.97;2.87;;;22.10;62.00;;;;;;5179097;28;20042;-65
2021/10/21 02:28:50;;;;;;;4.45;2.55;;;22.10;62.00;;;;;;5184761;28;20052;-65
2021/10/21 02:31:23;;;;;;;;;;;22.10;62.00;;;;;;5181187;28;20053;-65
2021/10/21 02:33:55;;;;;;;6.88;2.70;;;22.10;62.00;;;;;;5179686;28;19925;-65
2021/10/21 02:36:28;;;;;;;5.30;2.97;;;22.10;62.10;;;;;;5162709;28;20682;-65
2021/10/21 02:39:00;;;;;;;6.43;2.67;;;22.10;62.00;;;;;;5181992;28;20056;-65
2021/10/21 02:41:33;;;;;;;7.35;3.03;;;22.10;62.00;;;;;;5178402;28;20049;-65
2021/10/21 02:44:05;;;;;;;5.50;2.67;;;22.10;62.00;;;;;;5165026;28;20073;-65
2021/10/21 02:46:38;;;;;;;6.60;3.00;;;22.10;61.90;;;;;;5179011;28;20049;-65
2021/10/21 02:49:10;;;;;;;3.28;2.30;;;22.10;61.80;;;;;;5178452;28;20520;-65
2021/10/21 02:51:43;;;;;;;4.25;2.50;;;22.10;61.80;;;;;;5180135;28;20414;-65
2021/10/21 02:54:15;;;;;;;5.38;2.65;;;22.10;61.80;;;;;;5181728;28;20037;-65
2021/10/21 02:56:48;;;;;;;4.38;2.58;;;22.10;61.80;;;;;;5179425;28;20041;-65
2021/10/21 02:59:20;;;;;;;3.10;2.53;;;22.10;61.80;;;;;;5183576;28;20049;-65
2021/10/21 03:01:53;;;;;;;4.05;2.38;;;22.10;61.90;;;;;;5182613;28;20053;-65
2021/10/21 03:04:26;;;;;;;2.95;2.65;;;22.10;61.80;;;;;;5184106;28;20041;-65
2021/10/21 03:06:58;;;;;;;2.90;2.58;;;22.10;61.80;;;;;;5168020;28;20611;-65
2021/10/21 03:09:30;;;;;;;3.90;3.00;;;22.10;61.80;;;;;;5181647;28;20049;-65
2021/10/21 03:12:03;;;;;;;3.50;2.65;;;22.10;61.80;;;;;;5178096;28;20045;-65
2021/10/21 03:14:35;;;;;;;4.37;2.70;;;22.10;61.70;;;;;;5184060;28;20052;-65
2021/10/21 03:17:09;;;;;;;5.05;2.72;;;22.10;61.60;;;;;;5179456;28;20261;-65
2021/10/21 03:19:42;;;;;;;4.95;2.63;;;22.10;61.60;;;;;;5180992;28;20045;-66
2021/10/21 03:22:15;;;;;;;4.40;3.22;;;22.10;61.60;;;;;;5156765;28;20050;-66
2021/10/21 03:24:47;;;;;;;4.35;2.72;;;22.10;61.60;;;;;;5152171;28;20049;-65
2021/10/21 03:27:20;;;;;;;6.65;2.70;;;22.10;61.60;;;;;;5180455;28;20958;-65
2021/10/21 03:29:53;;;;;;;7.28;3.40;;;22.10;61.50;;;;;;5182949;28;20049;-65
2021/10/21 03:32:25;;;;;;;4.60;2.35;;;22.10;61.50;;;;;;5179248;28;20502;-66
2021/10/21 03:34:58;;;;;;;5.75;2.88;;;22.10;61.40;;;;;;5179761;28;20057;-65
2021/10/21 03:37:30;;;;;;;6.77;2.60;;;22.10;61.50;;;;;;5179081;28;20049;-65
2021/10/21 03:40:05;;;;;;;3.20;2.72;;;22.10;61.50;;;;;;5161634;28;20308;-65
2021/10/21 03:42:38;;;;;;;6.07;3.20;;;22.00;61.30;;;;;;5177302;28;20049;-65
2021/10/21 03:45:11;;;;;;;4.63;2.88;;;22.10;61.50;;;;;;5180227;28;20344;-65
2021/10/21 03:47:43;;;;;;;5.15;2.70;;;22.10;61.50;;;;;;5174083;28;20057;-65
2021/10/21 03:50:17;;;;;;;4.70;3.22;;;22.10;61.40;;;;;;5180762;28;20053;-65
2021/10/21 03:52:49;;;;;;;;;;;22.10;61.40;;;;;;5173969;28;20045;-65
2021/10/21 03:55:21;;;;;;;3.13;2.80;;;22.00;61.40;;;;;;5179116;28;19937;-64
2021/10/21 03:57:54;;;;;;;4.57;3.20;;;22.00;61.40;;;;;;5171607;28;20049;-66
2021/10/21 04:00:26;;;;;;;4.43;2.85;;;22.10;61.30;;;;;;5168093;28;20061;-65
2021/10/21 04:02:58;;;;;;;4.18;2.80;;;22.00;61.30;;;;;;5170174;28;20304;-66
2021/10/21 04:05:31;;;;;;;4.57;2.55;;;22.10;61.40;;;;;;5172836;28;20045;-65
2021/10/21 04:08:04;;;;;;;4.50;3.33;;;22.10;61.40;;;;;;5169745;28;20049;-64
2021/10/21 04:10:37;;;;;;;4.80;3.03;;;22.00;61.30;;;;;;5171419;28;20045;-63
2021/10/21 04:13:10;;;;;;;3.72;2.90;;;22.00;61.30;;;;;;5146451;28;20064;-62
2021/10/21 04:15:42;;;;;;;;;;;22.10;61.50;;;;;;5168509;28;20065;-62
2021/10/21 04:18:15;;;;;;;9.15;2.92;;;22.00;61.70;;;;;;5209021;23;19924;-79
2021/10/21 04:20:49;;;;;;;3.37;2.87;;;22.00;61.80;;;;;;5207745;28;20053;-81
2021/10/21 04:23:21;;;;;;;6.22;3.20;;;22.00;61.80;;;;;;5202021;28;20314;-77
2021/10/21 04:25:54;;;;;;;4.93;3.13;;;22.00;61.90;;;;;;5215723;28;20501;-80
2021/10/21 04:28:26;;;;;;;5.70;3.10;;;22.00;62.00;;;;;;5208217;28;20052;-79
2021/10/21 04:30:59;;;;;;;8.68;2.90;;;22.00;62.20;;;;;;5217855;28;20054;-81
2021/10/21 04:33:32;;;;;;;5.53;2.83;;;22.00;62.20;;;;;;5214900;28;20044;-78
2021/10/21 04:36:04;;;;;;;6.22;3.08;;;22.00;62.20;;;;;;5171990;28;20452;-77
2021/10/21 04:38:36;;;;;;;4.07;2.67;;;22.00;62.30;;;;;;5215128;28;20425;-78
2021/10/21 04:41:09;;;;;;;9.68;3.17;;;22.00;62.40;;;;;;5208911;28;20063;-82
2021/10/21 04:43:41;;;;;;;5.22;3.50;;;22.00;62.40;;;;;;5206408;28;20052;-82
2021/10/21 04:46:14;;;;;;;6.53;2.83;;;22.10;62.50;;;;;;5209235;28;20092;-78
2021/10/21 04:48:46;;;;;;;7.50;3.00;;;22.10;62.60;;;;;;5177314;28;20059;-77
2021/10/21 04:51:19;;;;;;;4.32;2.78;;;22.10;62.60;;;;;;5198689;28;20044;-77
2021/10/21 04:53:51;;;;;;;11.13;3.40;;;22.10;62.90;;;;;;5214319;28;20048;-75
2021/10/21 04:56:25;;;;;;;9.02;3.13;;;22.00;63.50;;;;;;5218119;28;20052;-77
2021/10/21 04:58:57;;;;;;;16.00;3.85;;;22.10;62.80;;;;;;5207941;28;20051;-75
2021/10/21 05:01:29;;;;;;;13.27;3.53;;;22.10;62.90;;;;;;5195531;28;21565;-80
2021/10/21 05:04:02;;;;;;;24.85;3.80;;;22.10;62.90;;;;;;5207723;28;20053;-78
2021/10/21 05:06:35;;;;;;;16.85;4.03;;;22.10;63.00;;;;;;5198959;28;20508;-77
2021/10/21 05:09:07;;;;;;;11.27;3.08;;;22.10;62.90;;;;;;5207218;28;20044;-82
2021/10/21 05:11:39;;;;;;;11.90;3.70;;;22.10;62.90;;;;;;5183359;28;20047;-81
2021/10/21 05:14:12;;;;;;;7.20;3.35;;;22.10;62.80;;;;;;5195464;28;20051;-79
2021/10/21 05:16:44;;;;;;;10.55;3.85;;;22.10;63.40;;;;;;5209027;28;20048;-77
2021/10/21 05:19:17;;;;;;;13.68;3.60;;;22.10;62.80;;;;;;5189607;28;20051;-79
2021/10/21 05:21:49;;;;;;;12.23;3.60;;;22.10;62.80;;;;;;5201945;28;20052;-78
2021/10/21 05:24:21;;;;;;;11.25;2.95;;;22.10;62.70;;;;;;5208537;28;20045;-77
2021/10/21 05:26:54;;;;;;;14.15;3.47;;;22.10;62.80;;;;;;5180736;28;20053;-75
2021/10/21 05:29:26;;;;;;;13.30;3.13;;;22.10;62.70;;;;;;5205317;28;20052;-76
2021/10/21 05:32:00;;;;;;;10.73;3.42;;;22.10;62.70;;;;;;5203780;28;20048;-78
2021/10/21 05:34:37;;;;;;;6.45;2.97;;;22.10;62.70;;;;;;5194397;28;20049;-75
2021/10/21 05:37:09;;;;;;;7.32;3.15;;;22.10;62.70;;;;;;5223388;28;20037;-77
2021/10/21 05:39:42;;;;;;;11.52;3.28;;;22.10;62.60;;;;;;5230358;28;21506;-80
2021/10/21 05:42:14;;;;;;;7.60;3.13;;;22.10;62.60;;;;;;5212535;28;20056;-77
2021/10/21 05:44:47;;;;;;;6.60;3.33;;;22.10;62.50;;;;;;5224219;28;20424;-78
2021/10/21 05:47:19;;;;;;;6.78;3.55;;;22.10;62.50;;;;;;5227080;28;20059;-79
2021/10/21 05:49:52;;;;;;;9.77;3.53;;;22.10;62.50;;;;;;5226297;28;20059;-76
2021/10/21 05:52:25;;;;;;;5.85;3.30;;;22.10;62.50;;;;;;5228933;28;20056;-76
2021/10/21 05:54:57;;;;;;;6.90;3.38;;;22.10;62.50;;;;;;5221207;28;20037;-75
2021/10/21 05:57:30;;;;;;;5.75;2.90;;;22.10;62.50;;;;;;5224593;28;20037;-77
2021/10/21 06:00:03;;;;;;;8.15;3.45;;;22.10;62.50;;;;;;5224730;28;21117;-80
2021/10/21 06:02:43;;;;;;;4.07;2.80;;;22.10;62.50;;;;;;5221303;28;20041;-75
2021/10/21 06:05:15;;;;;;;7.03;3.15;;;22.00;62.40;;;;;;5191233;28;20048;-77
2021/10/21 06:07:48;;;;;;;10.18;3.50;;;22.00;62.40;;;;;;5218654;28;20048;-78
2021/10/21 06:10:20;;;;;;;7.97;3.50;;;22.00;62.50;;;;;;5226296;28;20048;-77
2021/10/21 06:12:54;;;;;;;4.00;2.80;;;22.00;62.40;;;;;;5223525;28;20045;-80
2021/10/21 06:15:26;;;;;;;8.98;3.03;;;22.00;62.40;;;;;;5213594;28;20308;-78
2021/10/21 06:18:02;;;;;;;10.05;2.88;;;22.00;62.50;;;;;;5217591;28;20344;-78
2021/10/21 06:20:36;;;;;;;8.65;3.47;;;22.00;62.40;;;;;;5219000;28;20052;-80
2021/10/21 06:23:11;;;;;;;6.03;3.05;;;22.00;62.50;;;;;;5213965;28;20285;-78
2021/10/21 06:25:44;;;;;;;6.00;2.97;;;22.00;62.50;;;;;;5201417;28;20055;-76
2021/10/21 06:28:16;;;;;;;6.70;2.92;;;22.00;62.50;;;;;;5213320;28;20532;-77
2021/10/21 06:30:48;;;;;;;6.68;3.20;;;22.00;62.40;;;;;;5204217;28;20048;-77
2021/10/21 06:33:21;;;;;;;8.70;2.97;;;22.00;63.10;;;;;;5221380;28;20040;-76
2021/10/21 06:35:53;;;;;;;5.78;3.28;;;22.00;62.50;;;;;;5222297;28;20049;-78
2021/10/21 06:38:27;;;;;;;5.95;2.90;;;22.00;62.50;;;;;;5224938;28;20048;-81
2021/10/21 06:41:00;;;;;;;5.15;3.03;;;22.00;62.50;;;;;;5202423;28;20055;-76
2021/10/21 06:43:32;;;;;;;6.50;3.08;;;22.00;62.50;;;;;;5225513;28;20049;-76
2021/10/21 06:46:06;;;;;;;3.97;2.75;;;22.00;62.50;;;;;;5225073;28;20060;-77
2021/10/21 06:48:38;;;;;;;;;;;22.00;62.60;;;;;;5225885;28;20044;-76
2021/10/21 06:51:11;;;;;;;8.00;2.75;;;21.90;62.60;;;;;;5195833;28;19920;-76
2021/10/21 06:53:43;;;;;;;5.70;3.10;;;22.00;62.70;;;;;;5213138;28;20037;-78
2021/10/21 06:56:15;;;;;;;4.03;2.97;;;22.00;62.70;;;;;;5211167;28;20127;-79
2021/10/21 06:58:47;;;;;;;5.80;2.97;;;22.00;62.70;;;;;;5215643;28;20044;-76
2021/10/21 07:01:20;;;;;;;6.30;3.47;;;22.00;62.70;;;;;;5222633;28;20455;-80
2021/10/21 07:03:52;;;;;;;9.32;3.40;;;22.00;62.70;;;;;;5219778;28;20055;-74
2021/10/21 07:06:25;;;;;;;5.28;2.85;;;22.00;62.80;;;;;;5227323;28;20045;-78
2021/10/21 07:08:57;;;;;;;6.72;3.17;;;22.00;62.70;;;;;;5221869;28;20056;-78
2021/10/21 07:11:31;;;;;;;7.25;2.95;;;22.00;62.80;;;;;;5228006;28;20067;-76
2021/10/21 07:14:03;;;;;;;6.55;2.58;;;22.00;62.80;;;;;;5231464;28;20040;-77
2021/10/21 07:16:36;;;;;;;5.43;3.10;;;22.00;62.80;;;;;;5213149;28;20371;-76
2021/10/21 07:19:10;;;;;;;3.70;2.63;;;22.00;62.80;;;;;;5202898;28;20040;-82
2021/10/21 07:21:43;;;;;;;6.30;2.53;;;21.90;62.70;;;;;;5195985;28;20056;-76
2021/10/21 07:24:16;;;;;;;;;;;21.90;62.70;;;;;;5204350;28;20594;-75
2021/10/21 07:26:48;;;;;;;4.80;2.45;;;21.90;62.80;;;;;;5184350;28;20616;-76
2021/10/21 07:29:21;;;;;;;7.38;2.67;;;21.90;63.50;;;;;;5197403;28;20056;-78
2021/10/21 07:31:53;;;;;;;3.88;2.38;;;21.90;62.80;;;;;;5224210;28;20041;-78
2021/10/21 07:34:26;;;;;;;4.05;2.67;;;21.90;62.70;;;;;;5181449;28;20044;-77
2021/10/21 07:36:58;;;;;;;5.80;2.47;;;21.90;62.70;;;;;;5211652;28;20099;-77
2021/10/21 07:39:31;;;;;;;4.68;2.67;;;21.90;62.70;;;;;;5229027;28;20044;-76
2021/10/21 07:42:03;;;;;;;5.17;2.50;;;21.90;62.80;;;;;;5200073;28;20955;-78
2021/10/21 07:44:40;;;;;;;6.73;3.20;;;22.00;62.80;;;;;;5223341;28;20060;-76
2021/10/21 07:47:12;;;;;;;4.63;2.75;;;21.90;62.70;;;;;;5227203;28;20531;-77
2021/10/21 07:49:45;;;;;;;4.18;2.58;;;21.90;62.70;;;;;;5204138;28;20095;-75
2021/10/21 07:52:19;;;;;;;4.13;2.45;;;21.90;62.70;;;;;;5217223;28;20462;-77
2021/10/21 07:54:52;;;;;;;7.78;2.40;;;22.00;62.80;;;;;;5215121;28;20040;-76
2021/10/21 07:57:26;;;;;;;6.88;2.75;;;21.90;62.70;;;;;;5206085;28;20055;-75
2021/10/21 07:59:59;;;;;;;4.18;2.90;;;21.90;62.70;;;;;;5222625;28;20397;-76
2021/10/21 08:02:31;;;;;;;2.83;2.20;;;22.00;62.80;;;;;;5225948;28;20242;-76
2021/10/21 08:05:04;;;;;;;6.47;2.53;;;21.90;62.70;;;;;;5211571;28;20489;-75
2021/10/21 08:07:38;;;;;;;5.03;2.20;;;21.90;62.70;;;;;;5204712;28;20859;-78
2021/10/21 08:10:13;;;;;;;5.57;2.38;;;21.90;62.70;;;;;;5230973;28;20060;-79
2021/10/21 08:12:46;;;;;;;4.40;2.28;;;21.90;62.70;;;;;;5201244;28;20041;-80
2021/10/21 08:15:19;;;;;;;4.35;2.00;;;21.90;62.70;;;;;;5208657;28;20045;-78
2021/10/21 08:17:53;;;;;;;9.03;2.47;;;22.00;62.70;;;;;;5215540;28;20091;-80
2021/10/21 08:20:27;;;;;;;3.42;2.28;;;21.90;62.70;;;;;;5229408;28;20051;-78
2021/10/21 08:23:04;;;;;;;11.80;2.47;;;22.00;62.80;;;;;;5213696;28;20044;-78
2021/10/21 08:25:37;;;;;;;6.10;2.40;;;22.00;62.80;;;;;;5221466;28;20044;-78
2021/10/21 08:28:11;;;;;;;3.33;2.53;;;22.00;62.80;;;;;;5219332;28;20051;-76
2021/10/21 08:30:44;;;;;;;7.00;2.40;;;22.00;63.40;;;;;;5220850;28;20405;-77
2021/10/21 08:33:16;;;;;;;4.05;2.45;;;21.90;62.70;;;;;;5221143;28;20052;-79
2021/10/21 08:35:49;;;;;;;4.45;2.30;;;22.00;62.70;;;;;;5204298;28;20142;-80
2021/10/21 08:38:21;;;;;;;3.38;2.30;;;22.00;62.70;;;;;;5225897;28;20048;-76
2021/10/21 08:40:53;;;;;;;4.95;2.17;;;22.00;62.70;;;;;;5205994;28;20941;-76
2021/10/21 08:43:26;;;;;;;3.88;2.10;;;22.00;62.70;;;;;;5227008;28;20878;-79
2021/10/21 08:46:00;;;;;;;5.17;2.30;;;22.00;62.70;;;;;;5222447;28;20053;-76
2021/10/21 08:48:35;;;;;;;5.97;2.60;;;22.00;62.60;;;;;;5224342;28;20931;-80
2021/10/21 08:51:07;;;;;;;4.25;2.17;;;22.00;62.60;;;;;;5232307;28;20044;-76
2021/10/21 08:53:40;;;;;;;3.30;2.03;;;22.00;62.60;;;;;;5225396;28;20045;-79
2021/10/21 08:56:12;;;;;;;3.83;2.53;;;22.00;62.60;;;;;;5222565;28;20116;-77
2021/10/21 08:58:45;;;;;;;4.10;2.13;;;22.00;62.60;;;;;;5224634;28;20049;-77
2021/10/21 09:01:20;;;;;;;4.13;2.25;;;22.10;62.60;;;;;;5233397;28;20388;-79
2021/10/21 09:04:01;;;;;;;2.70;2.03;;;22.10;62.60;;;;;;5232545;28;25492;-78
2021/10/21 09:07:54;;;;;;;5.60;1.88;;;22.10;62.60;;;;;;5226811;28;20620;-77
2021/10/21 09:09:29;;;;;;;3.65;1.90;;;22.00;62.50;;;;;;4531985;28;10000832;-77
2021/10/21 09:12:10;;;;;;;5.40;2.03;;;22.00;62.50;;;;;;4879632;28;9999839;-79
2021/10/21 09:14:50;;;;;;;5.15;2.33;;;22.00;62.50;;;;;;5225388;28;20505;-81
2021/10/21 09:17:26;;;;;;;7.18;2.10;;;22.10;62.50;;;;;;5229877;28;20048;-81
2021/10/21 09:20:21;;;;;;;4.20;2.10;;;22.00;62.50;;;;;;5228358;28;20045;-80
2021/10/21 09:23:02;;;;;;;5.60;2.00;;;22.00;62.40;;;;;;5213019;28;20440;-75
2021/10/21 09:25:36;;;;;;;4.13;2.17;;;22.10;62.50;;;;;;5212704;28;20509;-83
2021/10/21 09:28:24;;;;;;;2.63;1.90;;;22.00;62.50;;;;;;5229439;28;20063;-77
2021/10/21 09:31:07;;;;;;;4.85;2.00;;;22.10;62.50;;;;;;5222392;28;20056;-80
2021/10/21 09:33:56;;;;;;;3.92;1.85;;;22.10;62.50;;;;;;5229267;28;20060;-76
2021/10/21 09:36:28;;;;;;;3.35;2.20;;;22.10;62.40;;;;;;5198422;28;20492;-78
2021/10/21 09:39:00;;;;;;;2.72;1.55;;;22.10;62.40;;;;;;5203754;28;20044;-76
2021/10/21 09:41:34;;;;;;;3.13;1.88;;;22.10;62.40;;;;;;5219861;28;20040;-76
2021/10/21 09:44:25;;;;;;;;;;;22.10;62.70;;;;;;5209582;28;20056;-77
2021/10/21 09:46:57;;;;;;;3.22;1.80;;;22.00;62.40;;;;;;5166529;28;20415;-80
2021/10/21 09:49:32;;;;;;;4.35;1.67;;;22.00;62.50;;;;;;5204283;28;20060;-82
2021/10/21 09:52:20;;;;;;;3.90;1.80;;;22.10;62.50;;;;;;5201139;28;20057;-77
2021/10/21 09:54:53;;;;;;;5.93;1.90;;;22.00;62.30;;;;;;5224961;28;20496;-78
2021/10/21 09:57:32;;;;;;;6.05;1.65;;;22.00;62.30;;;;;;5206711;28;20053;-79
2021/10/21 10:00:07;;;;;;;2.40;1.65;;;22.10;62.40;;;;;;5212339;28;20052;-82
2021/10/21 10:02:45;;;;;;;6.20;1.90;;;22.10;62.40;;;;;;5217600;28;20052;-78
2021/10/21 10:05:18;;;;;;;3.30;1.53;;;22.10;62.30;;;;;;5194974;28;20044;-80
2021/10/21 10:07:51;;;;;;;3.08;1.90;;;22.10;62.40;;;;;;5177347;28;20048;-80
2021/10/21 10:10:23;;;;;;;4.97;1.63;;;22.10;62.30;;;;;;5195545;28;20068;-81
2021/10/21 10:12:55;;;;;;;2.08;1.60;;;22.10;62.20;;;;;;5191891;28;20048;-84
2021/10/21 10:15:29;;;;;;;3.03;1.33;;;22.10;62.20;;;;;;5223964;28;20041;-79
2021/10/21 10:18:06;;;;;;;5.30;1.55;;;22.10;62.20;;;;;;5199523;28;20045;-78
2021/10/21 10:21:24;;;;;;;2.83;1.40;;;22.10;62.20;;;;;;5219413;28;20420;-77
2021/10/21 10:24:02;;;;;;;4.75;1.98;;;22.10;62.20;;;;;;5226291;28;20056;-79
2021/10/21 10:26:51;;;;;;;2.53;1.60;;;22.10;62.20;;;;;;5209288;28;20048;-80
2021/10/21 10:29:43;;;;;;;4.18;1.67;;;22.10;62.10;;;;;;5226439;28;20049;-80
2021/10/21 10:32:47;;;;;;;5.03;1.90;;;22.20;62.10;;;;;;5226275;28;20048;-80
2021/10/21 10:35:34;;;;;;;3.40;1.42;;;22.20;62.00;;;;;;5213138;28;20048;-80
2021/10/21 10:38:09;;;;;;;2.17;1.58;;;22.20;62.00;;;;;;5208146;28;20040;-80
2021/10/21 10:40:56;;;;;;;3.17;1.67;;;22.20;62.10;;;;;;5222065;28;20037;-78
2021/10/21 10:43:40;;;;;;;5.32;1.55;;;22.20;61.90;;;;;;5226623;28;20048;-77
2021/10/21 10:46:52;;;;;;;2.97;1.50;;;22.20;62.00;;;;;;5228084;28;20036;-77
2021/10/21 10:49:37;;;;;;;4.60;1.40;;;22.20;61.90;;;;;;5211733;28;20044;-78
2021/10/21 10:52:12;;;;;;;4.55;1.60;;;22.20;61.90;;;;;;5197161;28;20119;-81
2021/10/21 10:54:50;;;;;;;2.42;1.30;;;22.20;61.90;;;;;;5201305;28;20045;-78
2021/10/21 10:57:25;;;;;;;3.33;1.50;;;22.20;61.90;;;;;;5224476;28;20049;-78
2021/10/21 10:59:59;;;;;;;3.17;1.65;;;22.30;61.90;;;;;;5199653;28;20045;-80
2021/10/21 11:02:31;;;;;;;1.83;1.50;;;22.30;61.80;;;;;;5218260;28;20048;-79
2021/10/21 11:05:05;;;;;;;1.63;1.35;;;22.30;61.60;;;;;;5225938;28;20047;-80
2021/10/21 11:07:41;;;;;;;3.17;1.30;;;22.40;62.20;;;;;;5225982;28;20055;-78
2021/10/21 11:12:52;;;;;;;1.98;1.52;;;22.50;61.40;;;;;;5224650;28;20040;-77
2021/10/21 11:15:31;;;;;;;3.35;1.60;;;22.50;61.30;;;;;;5230352;28;20042;-76
2021/10/21 11:18:04;;;;;;;2.60;1.40;;;22.50;61.20;;;;;;5194096;28;20045;-78
2021/10/21 11:20:38;;;;;;;2.40;1.13;;;22.50;61.90;;;;;;5222089;28;20046;-77
2021/10/21 11:23:26;;;;;;;2.65;1.33;;;22.60;61.30;;;;;;5220787;28;21252;-78
2021/10/21 11:26:02;;;;;;;3.28;1.35;;;22.60;61.10;;;;;;5220782;28;20049;-83
2021/10/21 11:28:35;;;;;;;2.50;1.35;;;22.70;61.10;;;;;;5217804;28;20053;-80
2021/10/21 11:31:09;;;;;;;2.23;1.60;;;22.80;60.90;;;;;;5203025;28;20048;-82
2021/10/21 11:33:47;;;;;;;3.58;1.30;;;22.80;60.70;;;;;;5216010;28;20041;-80
2021/10/21 11:36:19;;;;;;;3.67;1.30;;;22.90;60.70;;;;;;5221934;28;20055;-79
2021/10/21 11:39:05;;;;;;;3.05;1.33;;;23.00;60.50;;;;;;5217333;28;20051;-79
2021/10/21 11:41:37;;;;;;;3.60;1.40;;;23.00;60.40;;;;;;5224967;28;20040;-82
2021/10/21 11:44:10;;;;;;;3.78;1.30;;;23.10;60.30;;;;;;5221230;28;20540;-79
2021/10/21 11:46:42;;;;;;;4.10;1.40;;;23.10;60.20;;;;;;5226737;28;20045;-76
2021/10/21 11:49:28;;;;;;;2.22;1.40;;;23.10;60.20;;;;;;5228503;28;20937;-76
2021/10/21 11:52:09;;;;;;;4.88;1.50;;;23.10;60.10;;;;;;5222252;28;20087;-75
2021/10/21 11:54:46;;;;;;;3.28;1.30;;;23.10;60.20;;;;;;5197367;28;20532;-80
2021/10/21 11:57:31;;;;;;;3.85;1.50;;;23.10;60.20;;;;;;5231833;28;20488;-75
2021/10/21 12:00:28;;;;;;;3.17;1.50;;;23.10;60.20;;;;;;5215153;28;20051;-75
2021/10/21 12:03:01;;;;;;;4.18;1.38;;;23.10;60.10;;;;;;5199228;28;20056;-76
2021/10/21 12:05:40;;;;;;;2.28;1.05;;;23.10;60.20;;;;;;5229623;28;20519;-76
2021/10/21 12:08:20;;;;;;;2.70;1.20;;;23.10;60.20;;;;;;5194779;28;20057;-79
2021/10/21 12:10:56;;;;;;;5.47;1.77;;;23.10;60.20;;;;;;5192157;28;20052;-80
2021/10/21 12:13:34;;;;;;;3.58;1.40;;;23.10;60.20;;;;;;5211802;28;20044;-76
2021/10/21 12:16:18;;;;;;;3.60;1.13;;;23.10;60.10;;;;;;5202135;28;20041;-79
2021/10/21 12:19:06;;;;;;;4.35;1.33;;;23.10;60.10;;;;;;5203183;28;20055;-78
2021/10/21 12:21:41;;;;;;;2.35;1.10;;;23.10;60.10;;;;;;5221347;28;20504;-82
2021/10/21 12:24:25;;;;;;;3.20;1.38;;;23.20;60.10;;;;;;5215143;28;20060;-76
2021/10/21 12:27:03;;;;;;;3.35;1.70;;;23.20;60.10;;;;;;5226689;28;20052;-78
2021/10/21 12:29:43;;;;;;;2.88;1.30;;;23.20;60.10;;;;;;5221114;28;20049;-75
2021/10/21 12:32:21;;;;;;;6.93;1.33;;;23.30;60.10;;;;;;5221793;28;20056;-78
2021/10/21 12:35:05;;;;;;;3.72;1.60;;;23.30;59.90;;;;;;5222305;28;20051;-75
2021/10/21 12:37:40;;;;;;;7.47;1.63;;;23.40;59.90;;;;;;5206273;28;20056;-75
2021/10/21 12:40:21;;;;;;;7.43;1.95;;;23.40;59.80;;;;;;5230792;28;20393;-77
2021/10/21 12:43:13;;;;;;;4.30;1.40;;;23.50;59.80;;;;;;5207578;28;20520;-77
2021/10/21 12:45:46;;;;;;;8.95;2.33;;;23.50;59.60;;;;;;5224728;28;20045;-78
2021/10/21 12:48:21;;;;;;;7.43;1.60;;;23.50;59.50;;;;;;5229246;28;20044;-80
2021/10/21 12:51:06;;;;;;;13.88;1.77;;;23.60;59.50;;;;;;5221987;28;20048;-76
2021/10/21 12:53:50;;;;;;;5.95;1.40;;;23.60;59.30;;;;;;5207169;28;20055;-74
2021/10/21 12:56:23;;;;;;;8.23;1.58;;;23.70;59.30;;;;;;5227053;28;20040;-76
2021/10/21 12:59:00;;;;;;;;;;;23.70;59.20;;;;;;5229087;28;20506;-76
2021/10/21 13:01:53;;;;;;;10.05;1.42;;;23.80;59.20;;;;;;5229119;28;19939;-80
2021/10/21 13:04:43;;;;;;;3.83;1.40;;;23.80;59.00;;;;;;4880719;28;10000248;-76
2021/10/21 13:07:24;;;;;;;5.05;1.27;;;23.90;58.90;;;;;;5227395;28;20041;-78
2021/10/21 13:09:56;;;;;;;8.23;1.60;;;24.00;58.70;;;;;;5214051;28;20496;-74
2021/10/21 13:12:29;;;;;;;5.22;1.40;;;24.10;58.50;;;;;;5228778;28;20041;-77
2021/10/21 13:15:06;;;;;;;4.00;1.20;;;24.30;58.40;;;;;;5229614;28;20044;-80
2021/10/21 13:17:38;;;;;;;9.68;1.23;;;24.40;58.00;;;;;;5227520;28;20511;-77
2021/10/21 13:20:11;;;;;;;10.02;1.60;;;24.50;57.90;;;;;;5226701;28;20074;-79
2021/10/21 13:22:43;;;;;;;6.97;1.30;;;24.50;57.60;;;;;;5200794;28;20128;-81
2021/10/21 13:25:15;;;;;;;4.00;1.10;;;24.60;57.40;;;;;;5193094;28;20083;-80
2021/10/21 13:27:48;;;;;;;8.52;1.23;;;24.70;57.30;;;;;;5191586;28;20056;-73
2021/10/21 13:30:20;;;;;;;10.93;1.67;;;24.80;57.40;;;;;;5214526;28;20441;-74